createdAt,value
2022-09-06T00:01:13.954Z,98105.94
2022-09-06T00:03:40.317Z,98114.50
2022-09-06T00:06:07.075Z,98110.50
2022-09-06T00:08:33.559Z,98117.22
2022-09-06T00:11:01.366Z,98126.41
2022-09-06T00:13:28.100Z,98113.50
2022-09-06T00:15:54.500Z,98114.84
2022-09-06T00:18:21.255Z,98108.91
2022-09-06T00:20:48.126Z,98118.09
2022-09-06T00:23:14.696Z,98114.84
2022-09-06T00:25:41.222Z,98108.66
2022-09-06T00:28:07.595Z,98112.44
2022-09-06T00:30:36.962Z,98116.19
2022-09-06T00:33:03.284Z,98126.94
2022-09-06T00:35:29.584Z,98112.19
2022-09-06T00:37:55.936Z,98112.44
2022-09-06T00:40:22.317Z,98109.22
2022-09-06T00:42:48.937Z,98092.00
2022-09-06T00:45:18.473Z,98096.84
2022-09-06T00:47:44.872Z,98091.47
2022-09-06T00:50:11.171Z,98095.25
2022-09-06T00:52:37.636Z,98085.81
2022-09-06T00:55:03.966Z,98093.34
2022-09-06T00:57:30.305Z,98095.53
2022-09-06T00:59:56.818Z,98085.84
2022-09-06T01:02:23.502Z,98086.13
2022-09-06T01:04:52.114Z,98093.66
2022-09-06T01:07:18.470Z,98093.09
2022-09-06T01:09:45.013Z,98092.59
2022-09-06T01:12:11.377Z,98098.22
2022-09-06T01:14:37.750Z,98099.31
2022-09-06T01:17:05.448Z,98100.66
2022-09-06T01:19:31.907Z,98101.22
2022-09-06T01:21:58.286Z,98097.19
2022-09-06T01:24:24.603Z,98083.19
2022-09-06T01:26:51.448Z,98080.25
2022-09-06T01:29:17.876Z,98080.50
2022-09-06T01:31:44.845Z,98069.75
2022-09-06T01:34:14.341Z,98069.22
2022-09-06T01:36:54.310Z,98066.53
2022-09-06T01:39:27.080Z,98064.38
2022-09-06T01:41:53.700Z,98068.94
2022-09-06T01:44:20.628Z,98068.13
2022-09-06T01:46:46.988Z,98077.56
2022-09-06T01:49:13.530Z,98080.75
2022-09-06T01:51:40.367Z,98079.41
2022-09-06T01:54:06.819Z,98080.47
2022-09-06T01:56:33.506Z,98078.88
2022-09-06T01:59:09.162Z,98074.59
2022-09-06T02:01:35.871Z,98071.09
2022-09-06T02:04:02.319Z,98059.78
2022-09-06T02:06:28.839Z,98065.19
2022-09-06T02:08:55.123Z,98054.69
2022-09-06T02:11:21.851Z,98055.75
2022-09-06T02:13:48.207Z,98060.63
2022-09-06T02:16:15.087Z,98061.69
2022-09-06T02:18:41.461Z,98060.09
2022-09-06T02:21:07.810Z,98058.19
2022-09-06T02:23:34.145Z,98056.56
2022-09-06T02:26:00.496Z,98058.44
2022-09-06T02:28:27.057Z,98051.75
2022-09-06T02:30:53.604Z,98053.91
2022-09-06T02:33:19.960Z,98061.97
2022-09-06T02:35:46.308Z,98054.44
2022-09-06T02:38:12.716Z,98060.88
2022-09-06T02:40:39.018Z,98056.88
2022-09-06T02:43:05.374Z,98050.13
2022-09-06T02:45:31.881Z,98048.53
2022-09-06T02:47:58.230Z,98041.53
2022-09-06T02:50:25.456Z,98050.69
2022-09-06T02:52:54.947Z,98044.50
2022-09-06T02:55:22.387Z,98038.56
2022-09-06T02:57:48.779Z,98046.09
2022-09-06T03:00:15.180Z,98043.69
2022-09-06T03:02:44.556Z,98046.91
2022-09-06T03:05:10.938Z,98054.16
2022-09-06T03:07:37.358Z,98043.69
2022-09-06T03:10:03.685Z,98043.16
2022-09-06T03:12:30.024Z,98047.19
2022-09-06T03:14:56.309Z,98049.34
2022-09-06T03:17:23.242Z,98049.59
2022-09-06T03:19:49.618Z,98052.81
2022-09-06T03:22:15.885Z,98060.34
2022-09-06T03:24:44.782Z,98054.44
2022-09-06T03:27:11.064Z,98053.88
2022-09-06T03:29:37.403Z,98052.28
2022-09-06T03:32:04.424Z,98053.34
2022-09-06T03:34:30.821Z,98051.22
2022-09-06T03:36:57.422Z,98044.19
2022-09-06T03:39:23.977Z,98042.59
2022-09-06T03:41:50.380Z,98043.69
2022-09-06T03:44:16.811Z,98038.84
2022-09-06T03:46:43.296Z,98038.03
2022-09-06T03:49:09.965Z,98042.03
2022-09-06T03:51:36.236Z,98044.16
2022-09-06T03:54:02.526Z,98035.56
2022-09-06T03:56:29.146Z,98029.13
2022-09-06T03:58:55.439Z,98026.69
2022-09-06T04:01:21.984Z,98023.75
2022-09-06T04:03:48.438Z,98019.72
2022-09-06T04:06:15.038Z,98026.41
2022-09-06T04:08:41.327Z,98020.53
2022-09-06T04:11:07.704Z,98018.09
2022-09-06T04:13:34.029Z,98021.84
2022-09-06T04:16:00.693Z,98017.81
2022-09-06T04:18:27.093Z,98013.53
2022-09-06T04:20:53.597Z,98019.16
2022-09-06T04:23:20.005Z,98009.75
2022-09-06T04:25:46.352Z,98015.38
2022-09-06T04:28:13.014Z,98016.47
2022-09-06T04:30:39.604Z,98019.41
2022-09-06T04:33:05.912Z,98022.34
2022-09-06T04:35:32.859Z,98011.59
2022-09-06T04:37:59.172Z,98019.16
2022-09-06T04:40:30.404Z,98014.00
2022-09-06T04:42:57.112Z,98013.50
2022-09-06T04:45:23.398Z,98008.38
2022-09-06T04:47:49.840Z,98009.44
2022-09-06T04:50:16.372Z,98012.41
2022-09-06T04:52:43.049Z,98019.91
2022-09-06T04:55:09.446Z,98021.25
2022-09-06T04:57:35.779Z,98017.75
2022-09-06T05:00:02.527Z,98027.94
2022-09-06T05:02:29.541Z,98022.03
2022-09-06T05:04:55.981Z,98024.72
2022-09-06T05:07:22.269Z,98029.53
2022-09-06T05:09:49.043Z,98030.63
2022-09-06T05:12:15.330Z,98027.38
2022-09-06T05:14:41.724Z,98034.63
2022-09-06T05:17:08.015Z,98031.41
2022-09-06T05:19:34.537Z,98031.41
2022-09-06T05:22:01.019Z,98026.28
2022-09-06T05:24:27.609Z,98035.16
2022-09-06T05:26:53.927Z,98036.25
2022-09-06T05:29:20.253Z,98031.66
2022-09-06T05:31:46.593Z,98046.16
2022-09-06T05:34:12.961Z,98070.31
2022-09-06T05:36:39.280Z,98066.53
2022-09-06T05:39:05.920Z,98052.34
2022-09-06T05:41:32.500Z,98056.88
2022-09-06T05:43:58.952Z,98069.47
2022-09-06T05:46:25.313Z,98072.97
2022-09-06T05:48:51.675Z,98063.06
2022-09-06T05:51:18.492Z,98078.09
2022-09-06T05:53:45.058Z,98068.72
2022-09-06T05:56:11.469Z,98066.59
2022-09-06T05:58:37.817Z,98065.00
2022-09-06T06:01:04.393Z,98072.00
2022-09-06T06:03:31.253Z,98090.81
2022-09-06T06:05:57.601Z,98091.09
2022-09-06T06:08:23.884Z,98082.75
2022-09-06T06:10:50.279Z,98070.94
2022-09-06T06:13:16.829Z,98065.06
2022-09-06T06:15:43.279Z,98072.31
2022-09-06T06:18:09.578Z,98068.03
2022-09-06T06:20:35.877Z,98076.38
2022-09-06T06:23:02.571Z,98055.16
2022-09-06T06:25:29.164Z,98078.81
2022-09-06T06:27:55.469Z,98090.38
2022-09-06T06:30:21.888Z,98089.63
2022-09-06T06:32:48.226Z,98084.53
2022-09-06T06:35:14.486Z,98082.41
2022-09-06T06:37:40.801Z,98074.31
2022-09-06T06:40:07.290Z,98078.59
2022-09-06T06:42:33.803Z,98078.31
2022-09-06T06:45:00.265Z,98081.25
2022-09-06T06:47:27.103Z,98082.25
2022-09-06T06:49:53.404Z,98068.53
2022-09-06T06:52:19.795Z,98061.78
2022-09-06T06:54:46.533Z,98082.09
2022-09-06T06:57:12.895Z,98077.72
2022-09-06T06:59:39.309Z,98049.78
2022-09-06T07:02:05.718Z,98042.59
2022-09-06T07:04:32.135Z,98037.78
2022-09-06T07:12:31.016Z,98046.03
2022-09-06T07:14:57.335Z,98058.91
2022-09-06T07:17:23.619Z,98072.59
2022-09-06T07:22:36.406Z,98041.22
2022-09-06T07:25:02.977Z,98048.25
2022-09-06T07:30:16.083Z,98051.75
2022-09-06T07:32:42.522Z,98042.63
2022-09-06T07:35:09.081Z,98055.00
2022-09-06T07:37:35.529Z,98046.09
2022-09-06T07:40:02.070Z,98044.22
2022-09-06T07:42:30.760Z,98052.03
2022-09-06T07:44:59.107Z,98041.25
2022-09-06T07:53:10.960Z,98042.31
2022-09-06T07:55:42.199Z,98043.34
2022-09-06T07:58:08.618Z,98044.13
2022-09-06T08:00:34.990Z,98051.34
2022-09-06T08:03:01.297Z,98047.03
2022-09-06T08:11:00.376Z,98044.25
2022-09-06T08:13:26.806Z,98044.22
2022-09-06T08:15:53.194Z,98061.88
2022-09-06T08:18:19.639Z,98053.28
2022-09-06T08:20:46.205Z,98044.41
2022-09-06T08:23:13.028Z,98051.97
2022-09-06T08:25:39.394Z,98057.31
2022-09-06T08:28:05.694Z,98052.69
2022-09-06T08:30:35.305Z,98076.06
2022-09-06T08:33:02.081Z,98095.28
2022-09-06T08:35:28.730Z,98095.50
2022-09-06T08:37:55.497Z,98128.13
2022-09-06T08:40:24.900Z,98098.50
2022-09-06T08:42:51.329Z,98098.16
2022-09-06T08:45:17.683Z,98107.75
2022-09-06T08:47:44.370Z,98179.59
2022-09-06T08:50:10.718Z,98112.38
2022-09-06T08:52:41.818Z,98090.50
2022-09-06T08:55:11.501Z,98063.00
2022-09-06T08:57:40.287Z,98053.03
2022-09-06T09:00:06.925Z,98091.31
2022-09-06T09:02:33.383Z,98050.84
2022-09-06T09:05:00.084Z,98054.63
2022-09-06T09:07:26.453Z,98092.31
2022-09-06T09:09:52.846Z,98107.59
2022-09-06T09:12:19.503Z,98080.94
2022-09-06T09:14:45.830Z,98093.78
2022-09-06T09:17:12.260Z,98071.28
2022-09-06T09:19:39.056Z,98050.44
2022-09-06T09:22:05.428Z,98051.50
2022-09-06T09:24:31.807Z,98052.31
2022-09-06T09:26:58.070Z,98049.06
2022-09-06T09:29:28.697Z,98057.09
2022-09-06T09:31:56.077Z,98049.81
2022-09-06T09:34:22.591Z,98042.78
2022-09-06T09:39:35.386Z,98043.22
2022-09-06T09:42:01.988Z,98038.84
2022-09-06T09:44:28.311Z,98038.56
2022-09-06T09:46:55.115Z,98033.69
2022-09-06T09:49:21.680Z,98036.88
2022-09-06T09:51:48.000Z,98038.22
2022-09-06T09:54:14.304Z,98031.94
2022-09-06T09:56:40.684Z,98032.16
2022-09-06T09:59:07.062Z,98027.56
2022-09-06T10:01:33.388Z,98028.63
2022-09-06T10:09:33.004Z,98019.78
2022-09-06T10:11:59.272Z,98020.91
2022-09-06T10:14:25.706Z,98007.09
2022-09-06T10:16:52.088Z,98009.22
2022-09-06T10:19:18.440Z,98011.06
2022-09-06T10:21:44.754Z,98012.06
2022-09-06T10:24:26.984Z,98004.97
2022-09-06T10:26:53.932Z,98002.28
2022-09-06T10:29:20.377Z,98001.97
2022-09-06T10:31:46.831Z,98003.91
2022-09-06T10:34:13.398Z,98000.38
2022-09-06T10:36:39.961Z,98001.88
2022-09-06T10:39:06.296Z,98004.25
2022-09-06T10:41:32.658Z,98015.47
2022-09-06T10:44:03.545Z,98008.41
2022-09-06T10:46:30.347Z,98000.50
2022-09-06T10:48:56.748Z,97995.59
2022-09-06T10:51:23.103Z,97989.91
2022-09-06T10:53:49.482Z,97993.63
2022-09-06T10:56:15.855Z,98000.06
2022-09-06T11:01:28.661Z,97991.56
2022-09-06T11:03:58.314Z,97996.38
2022-09-06T11:06:28.797Z,97990.09
2022-09-06T11:08:58.094Z,97998.69
2022-09-06T11:11:24.789Z,97994.28
2022-09-06T11:13:51.077Z,97993.97
2022-09-06T11:16:17.565Z,97988.00
2022-09-06T11:18:43.914Z,97993.63
2022-09-06T11:21:10.218Z,97988.69
2022-09-06T11:23:36.700Z,97983.78
2022-09-06T11:26:03.034Z,97984.28
2022-09-06T11:28:29.650Z,97980.97
2022-09-06T11:30:56.024Z,97979.28
2022-09-06T11:33:22.343Z,97981.38
2022-09-06T11:35:48.789Z,97982.44
2022-09-06T11:38:15.236Z,97973.19
2022-09-06T11:40:41.690Z,97976.09
2022-09-06T11:43:08.657Z,97978.53
2022-09-06T11:45:34.947Z,97978.75
2022-09-06T11:48:01.695Z,97973.03
2022-09-06T11:50:28.269Z,97968.91
2022-09-06T11:52:54.552Z,97959.38
2022-09-06T11:55:22.842Z,97968.78
2022-09-06T11:57:51.516Z,97961.19
2022-09-06T12:00:17.923Z,97953.56
2022-09-06T12:02:44.321Z,97954.88
2022-09-06T12:05:10.802Z,97938.75
2022-09-06T12:07:37.631Z,97937.72
2022-09-06T12:10:03.959Z,97928.28
2022-09-06T12:12:30.302Z,97928.28
2022-09-06T12:14:56.630Z,97924.31
2022-09-06T12:17:27.399Z,97921.09
2022-09-06T12:19:56.646Z,97926.50
2022-09-06T12:22:23.081Z,97915.69
2022-09-06T12:24:49.674Z,97927.72
2022-09-06T12:27:15.981Z,97922.50
2022-09-06T12:29:42.289Z,97915.25
2022-09-06T12:32:08.619Z,97919.28
2022-09-06T12:34:35.496Z,97921.28
2022-09-06T12:37:01.886Z,97922.28
2022-09-06T12:39:28.810Z,97918.66
2022-09-06T12:41:55.290Z,97911.84
2022-09-06T12:44:21.716Z,97919.66
2022-09-06T12:46:48.139Z,97912.53
2022-09-06T12:49:14.552Z,97909.22
2022-09-06T12:51:40.890Z,97898.69
2022-09-06T12:54:07.222Z,97895.47
2022-09-06T12:56:33.546Z,97890.38
2022-09-06T12:59:06.161Z,97897.25
2022-09-06T13:01:32.723Z,97902.88
2022-09-06T13:03:59.134Z,97898.56
2022-09-06T13:06:27.181Z,97895.66
2022-09-06T13:08:53.665Z,97898.38
2022-09-06T13:11:20.065Z,97886.75
2022-09-06T13:13:46.433Z,97888.63
2022-09-06T13:16:13.126Z,97879.72
2022-09-06T13:18:39.507Z,97881.50
2022-09-06T13:21:05.845Z,97878.19
2022-09-06T13:23:32.497Z,97873.56
2022-09-06T13:25:58.855Z,97870.88
2022-09-06T13:28:25.162Z,97866.75
2022-09-06T13:30:51.658Z,97866.44
2022-09-06T13:33:17.977Z,97863.75
2022-09-06T13:35:44.519Z,97856.16
2022-09-06T13:38:11.261Z,97860.44
2022-09-06T13:40:53.839Z,97856.63
2022-09-06T13:43:24.147Z,97859.81
2022-09-06T13:45:50.600Z,97854.41
2022-09-06T13:48:28.860Z,97864.66
2022-09-06T13:50:55.805Z,97851.88
2022-09-06T13:53:23.313Z,97849.97
2022-09-06T13:55:50.157Z,97860.81
2022-09-06T13:58:16.733Z,97847.59
2022-09-06T14:00:43.149Z,97842.16
2022-09-06T14:03:09.490Z,97847.28
2022-09-06T14:05:35.906Z,97846.16
2022-09-06T14:08:02.479Z,97840.56
2022-09-06T14:10:30.886Z,97835.44
2022-09-06T14:12:57.256Z,97830.34
2022-09-06T14:15:23.956Z,97833.53
2022-09-06T14:17:50.329Z,97829.72
2022-09-06T14:20:16.953Z,97831.34
2022-09-06T14:22:43.279Z,97813.06
2022-09-06T14:25:09.651Z,97832.72
2022-09-06T14:27:36.062Z,97823.50
2022-09-06T14:30:02.594Z,97822.41
2022-09-06T14:32:29.364Z,97822.41
2022-09-06T14:34:55.813Z,97815.41
2022-09-06T14:37:22.139Z,97815.41
2022-09-06T14:39:48.504Z,97809.16
2022-09-06T14:42:14.944Z,97807.56
2022-09-06T14:44:41.644Z,97793.53
2022-09-06T14:47:09.388Z,97792.72
2022-09-06T14:49:35.817Z,97790.81
2022-09-06T14:52:02.687Z,97790.31
2022-09-06T14:54:29.567Z,97791.69
2022-09-06T14:56:55.931Z,97785.50
2022-09-06T14:59:22.284Z,97782.00
2022-09-06T15:01:49.083Z,97785.19
2022-09-06T15:04:15.444Z,97788.69
2022-09-06T15:06:41.771Z,97781.38
2022-09-06T15:09:08.125Z,97774.34
2022-09-06T15:11:34.705Z,97778.97
2022-09-06T15:14:01.057Z,97771.16
2022-09-06T15:16:27.358Z,97776.06
2022-09-06T15:18:53.637Z,97779.59
2022-09-06T15:21:20.141Z,97778.28
2022-09-06T15:23:47.750Z,97774.81
2022-09-06T15:26:14.138Z,97772.38
2022-09-06T15:28:40.456Z,97764.56
2022-09-06T15:31:06.967Z,97762.16
2022-09-06T15:33:33.356Z,97768.69
2022-09-06T15:35:59.776Z,97764.38
2022-09-06T15:38:26.084Z,97762.47
2022-09-06T15:40:52.458Z,97758.97
2022-09-06T15:43:18.785Z,97759.78
2022-09-06T15:45:45.233Z,97745.41
2022-09-06T15:48:12.254Z,97743.84
2022-09-06T15:50:50.687Z,97740.00
2022-09-06T15:53:18.019Z,97736.53
2022-09-06T15:55:44.318Z,97735.72
2022-09-06T15:58:10.651Z,97729.50
2022-09-06T16:00:36.995Z,97727.28
2022-09-06T16:03:09.469Z,97732.69
2022-09-06T16:08:22.186Z,97727.28
2022-09-06T16:10:48.525Z,97722.97
2022-09-06T16:13:15.080Z,97729.19
2022-09-06T16:15:41.604Z,97721.38
2022-09-06T16:18:07.975Z,97720.56
2022-09-06T16:20:34.283Z,97716.25
2022-09-06T16:23:01.061Z,97713.88
2022-09-06T16:25:27.404Z,97707.66
2022-09-06T16:27:53.660Z,97706.06
2022-09-06T16:30:20.171Z,97702.53
2022-09-06T16:32:46.816Z,97694.72
2022-09-06T16:35:13.138Z,97709.06
2022-09-06T16:37:39.564Z,97710.16
2022-09-06T16:40:06.082Z,97708.28
2022-09-06T16:42:32.557Z,97712.06
2022-09-06T16:44:59.005Z,97715.91
2022-09-06T16:47:25.860Z,97708.09
2022-09-06T16:49:52.610Z,97706.19
2022-09-06T16:52:19.012Z,97712.69
2022-09-06T16:54:45.328Z,97716.53
2022-09-06T16:57:11.887Z,97713.81
2022-09-06T16:59:38.324Z,97714.91
2022-09-06T17:02:04.811Z,97716.84
2022-09-06T17:04:31.348Z,97716.34
2022-09-06T17:06:57.678Z,97710.13
2022-09-06T17:09:24.263Z,97713.94
2022-09-06T17:11:50.613Z,97712.31
2022-09-06T17:14:17.217Z,97716.16
2022-09-06T17:16:43.836Z,97717.25
2022-09-06T17:19:10.281Z,97715.66
2022-09-06T17:21:37.130Z,97717.56
2022-09-06T17:24:03.429Z,97720.56
2022-09-06T17:26:29.915Z,97712.75
2022-09-06T17:28:56.204Z,97717.38
2022-09-06T17:31:25.863Z,97720.38
2022-09-06T17:33:52.402Z,97718.78
2022-09-06T17:36:19.111Z,97721.81
2022-09-06T17:38:47.139Z,97716.69
2022-09-06T17:41:16.155Z,97718.09
2022-09-06T17:43:42.520Z,97720.00
2022-09-06T17:46:09.142Z,97720.31
2022-09-06T17:48:35.472Z,97720.63
2022-09-06T17:51:01.793Z,97712.00
2022-09-06T17:53:28.241Z,97726.66
2022-09-06T17:55:54.607Z,97730.44
2022-09-06T17:58:21.127Z,97728.88
2022-09-06T18:00:47.466Z,97724.84
2022-09-06T18:03:13.899Z,97723.25
2022-09-06T18:05:40.293Z,97732.44
2022-09-06T18:08:07.094Z,97731.94
2022-09-06T18:10:33.491Z,97726.06
2022-09-06T18:12:59.869Z,97740.69
2022-09-06T18:15:26.164Z,97741.28
2022-09-06T18:17:52.731Z,97748.91
2022-09-06T18:20:19.100Z,97751.94
2022-09-06T18:22:45.411Z,97754.13
2022-09-06T18:25:11.808Z,97757.13
2022-09-06T18:27:38.284Z,97755.06
2022-09-06T18:30:12.849Z,97746.44
2022-09-06T18:32:41.114Z,97749.44
2022-09-06T18:35:07.441Z,97748.94
2022-09-06T18:37:34.150Z,97754.66
2022-09-06T18:40:00.657Z,97747.94
2022-09-06T18:42:27.191Z,97746.34
2022-09-06T18:44:54.641Z,97752.06
2022-09-06T18:47:20.970Z,97748.06
2022-09-06T18:49:47.358Z,97749.94
2022-09-06T18:52:13.712Z,97746.75
2022-09-06T18:54:40.233Z,97748.97
2022-09-06T18:57:06.647Z,97751.97
2022-09-06T18:59:33.213Z,97759.28
2022-09-06T19:01:59.636Z,97750.66
2022-09-06T19:04:26.250Z,97744.75
2022-09-06T19:06:52.613Z,97748.59
2022-09-06T19:09:18.973Z,97751.59
2022-09-06T19:11:45.274Z,97744.06
2022-09-06T19:14:11.726Z,97757.88
2022-09-06T19:16:38.077Z,97751.97
2022-09-06T19:19:04.591Z,97763.09
2022-09-06T19:21:31.063Z,97757.19
2022-09-06T19:23:57.489Z,97760.50
2022-09-06T19:26:23.796Z,97752.16
2022-09-06T19:28:50.191Z,97746.25
2022-09-06T19:31:16.878Z,97744.16
2022-09-06T19:33:43.526Z,97739.34
2022-09-06T19:36:13.047Z,97746.16
2022-09-06T19:38:59.526Z,97751.34
2022-09-06T19:41:26.229Z,97746.56
2022-09-06T19:43:53.085Z,97751.44
2022-09-06T19:46:19.639Z,97752.06
2022-09-06T19:48:45.997Z,97749.94
2022-09-06T19:51:12.360Z,97747.53
2022-09-06T19:53:39.043Z,97748.16
2022-09-06T19:56:05.726Z,97738.72
2022-09-06T19:58:32.123Z,97738.25
2022-09-06T20:00:58.455Z,97732.34
2022-09-06T20:03:26.191Z,97720.50
2022-09-06T20:05:52.547Z,97720.00
2022-09-06T20:08:18.834Z,97727.59
2022-09-06T20:10:45.360Z,97720.91
2022-09-06T20:13:11.735Z,97716.91
2022-09-06T20:15:38.254Z,97707.50
2022-09-06T20:18:04.760Z,97702.69
2022-09-06T20:20:31.254Z,97699.50
2022-09-06T20:22:58.048Z,97700.06
2022-09-06T20:25:24.366Z,97703.38
2022-09-06T20:27:51.310Z,97702.06
2022-09-06T20:30:17.583Z,97702.63
2022-09-06T20:32:44.844Z,97701.66
2022-09-06T20:35:11.281Z,97690.34
2022-09-06T20:37:37.596Z,97688.22
2022-09-06T20:40:04.209Z,97697.44
2022-09-06T20:42:30.634Z,97701.50
2022-09-06T20:44:57.107Z,97695.63
2022-09-06T20:47:23.839Z,97697.00
2022-09-06T20:49:50.763Z,97708.09
2022-09-06T20:52:17.184Z,97704.91
2022-09-06T20:54:44.014Z,97699.81
2022-09-06T20:57:10.424Z,97708.19
2022-09-06T20:59:37.552Z,97704.19
2022-09-06T21:02:04.131Z,97697.50
2022-09-06T21:04:30.640Z,97696.97
2022-09-06T21:06:57.224Z,97703.75
2022-09-06T21:09:23.691Z,97714.56
2022-09-06T21:11:53.217Z,97709.75
2022-09-06T21:14:19.577Z,97716.25
2022-09-06T21:16:46.187Z,97714.13
2022-09-06T21:19:13.169Z,97710.13
2022-09-06T21:21:40.733Z,97706.94
2022-09-06T21:24:07.317Z,97713.13
2022-09-06T21:26:33.703Z,97717.50
2022-09-06T21:29:00.129Z,97715.09
2022-09-06T21:31:26.498Z,97713.78
2022-09-06T21:33:52.863Z,97704.88
2022-09-06T21:36:19.221Z,97704.66
2022-09-06T21:38:48.620Z,97704.47
2022-09-06T21:41:15.024Z,97708.53
2022-09-06T21:46:33.087Z,97715.06
2022-09-06T21:48:59.908Z,97718.06
2022-09-06T21:51:26.628Z,97720.56
2022-09-06T21:53:52.949Z,97717.34
2022-09-06T21:56:19.244Z,97714.16
2022-09-06T21:58:45.662Z,97714.41
2022-09-06T22:01:12.155Z,97713.13
2022-09-06T22:03:38.831Z,97718.81
2022-09-06T22:06:05.247Z,97709.41
2022-09-06T22:08:31.599Z,97718.91
2022-09-06T22:10:58.077Z,97721.88
2022-09-06T22:13:24.939Z,97719.75
2022-09-06T22:15:51.345Z,97737.63
2022-09-06T22:18:17.678Z,97734.41
2022-09-06T22:20:44.076Z,97729.56
2022-09-06T22:23:10.499Z,97724.25
2022-09-06T22:25:36.922Z,97721.63
2022-09-06T22:28:03.513Z,97717.91
2022-09-06T22:30:30.305Z,97708.81
2022-09-06T22:32:56.793Z,97715.88
2022-09-06T22:35:23.625Z,97719.66
2022-09-06T22:37:50.802Z,97716.75
2022-09-06T22:40:17.610Z,97710.00
2022-09-06T22:42:43.941Z,97700.41
2022-09-06T22:45:10.566Z,97710.66
2022-09-06T22:47:37.690Z,97710.13
2022-09-06T22:50:04.335Z,97708.00
2022-09-06T22:52:30.703Z,97708.56
2022-09-06T22:54:57.655Z,97698.38
2022-09-06T22:57:24.002Z,97700.56
2022-09-06T22:59:50.751Z,97696.56
2022-09-06T23:02:17.597Z,97700.63
2022-09-06T23:04:44.654Z,97696.88
2022-09-06T23:09:37.379Z,97694.25
2022-09-06T23:12:03.762Z,97692.94
2022-09-06T23:14:30.068Z,97688.63
2022-09-06T23:16:56.379Z,97688.13
2022-09-06T23:19:22.858Z,97684.13
2022-09-06T23:21:49.709Z,97684.72
2022-09-06T23:24:16.075Z,97680.69
2022-09-06T23:26:42.420Z,97679.09
2022-09-06T23:29:08.770Z,97669.69
2022-09-06T23:31:35.138Z,97660.31
2022-09-06T23:36:46.545Z,97659.56
2022-09-06T23:39:12.856Z,97650.16
2022-09-06T23:41:39.396Z,97652.31
2022-09-06T23:44:05.790Z,97652.59
2022-09-06T23:46:32.409Z,97654.22
2022-09-06T23:48:58.880Z,97646.44
2022-09-06T23:51:25.620Z,97640.53
2022-09-06T23:53:51.949Z,97641.91
2022-09-06T23:56:21.910Z,97638.72
2022-09-06T23:58:48.244Z,97632.81
